createdAt,value
2023-04-30T00:01:37.205Z,12.73
2023-04-30T00:04:06.021Z,12.73
2023-04-30T00:06:34.568Z,12.32
2023-04-30T00:09:03.255Z,13.45
2023-04-30T00:11:33.034Z,12.25
2023-04-30T00:14:01.772Z,13.70
2023-04-30T00:16:31.644Z,13.63
2023-04-30T00:19:00.197Z,14.05
2023-04-30T00:21:28.608Z,14.93
2023-04-30T00:23:57.063Z,13.93
2023-04-30T00:26:25.765Z,13.93
2023-04-30T00:28:55.526Z,14.07
2023-04-30T00:31:24.380Z,13.52
2023-04-30T00:33:52.930Z,13.02
2023-04-30T00:36:22.125Z,12.82
2023-04-30T00:38:51.106Z,14.32
2023-04-30T00:41:20.289Z,13.50
2023-04-30T00:43:49.084Z,12.93
2023-04-30T00:46:19.465Z,12.18
2023-04-30T00:48:51.120Z,11.13
2023-04-30T00:51:20.362Z,12.27
2023-04-30T00:53:49.470Z,12.10
2023-04-30T00:56:18.125Z,11.50
2023-04-30T00:58:47.808Z,12.95
2023-04-30T01:01:19.184Z,11.80
2023-04-30T01:03:50.624Z,12.38
2023-04-30T01:06:20.190Z,11.90
2023-04-30T01:08:51.884Z,10.65
2023-04-30T01:11:29.980Z,12.60
2023-04-30T01:14:09.876Z,11.25
2023-04-30T01:16:47.222Z,10.68
2023-04-30T01:19:37.371Z,12.27
2023-04-30T01:22:08.293Z,12.13
2023-04-30T01:25:00.409Z,11.00
2023-04-30T01:28:02.567Z,11.10
2023-04-30T01:30:33.335Z,13.02
2023-04-30T01:33:02.860Z,11.45
2023-04-30T01:36:04.992Z,12.52
2023-04-30T01:39:02.055Z,11.63
2023-04-30T01:41:36.988Z,12.52
2023-04-30T01:44:26.294Z,12.02
2023-04-30T01:47:06.609Z,12.00
2023-04-30T01:49:49.736Z,13.20
2023-04-30T01:52:39.690Z,12.20
2023-04-30T01:55:15.875Z,12.90
2023-04-30T01:57:51.732Z,11.77
2023-04-30T02:00:20.445Z,13.05
2023-04-30T02:02:50.358Z,12.45
2023-04-30T02:05:18.937Z,13.32
2023-04-30T02:07:50.037Z,12.13
2023-04-30T02:10:20.934Z,12.52
2023-04-30T02:12:49.523Z,12.23
2023-04-30T02:15:18.287Z,13.60
2023-04-30T02:17:46.860Z,12.35
2023-04-30T02:20:17.062Z,12.90
2023-04-30T02:22:47.610Z,11.95
2023-04-30T02:25:16.045Z,12.32
2023-04-30T02:27:44.528Z,11.65
2023-04-30T02:30:13.196Z,12.52
2023-04-30T02:32:41.806Z,11.85
2023-04-30T02:35:10.819Z,12.18
2023-04-30T02:37:41.153Z,12.35
2023-04-30T02:40:11.021Z,10.80
2023-04-30T02:42:39.467Z,11.18
2023-04-30T02:45:09.429Z,14.43
2023-04-30T02:47:37.843Z,12.20
2023-04-30T02:50:07.811Z,12.38
2023-04-30T02:52:36.142Z,12.85
2023-04-30T02:55:06.783Z,11.15
2023-04-30T02:57:35.105Z,12.10
2023-04-30T03:00:04.114Z,12.65
2023-04-30T03:02:32.478Z,12.18
2023-04-30T03:05:00.973Z,12.55
2023-04-30T03:07:29.295Z,12.48
2023-04-30T03:09:57.742Z,13.38
2023-04-30T03:12:27.782Z,12.15
2023-04-30T03:14:56.013Z,13.50
2023-04-30T03:17:24.937Z,13.23
2023-04-30T03:19:53.857Z,11.70
2023-04-30T03:22:23.795Z,13.25
2023-04-30T03:24:52.272Z,13.23
2023-04-30T03:27:21.098Z,13.32
2023-04-30T03:29:51.051Z,12.30
2023-04-30T03:32:19.464Z,12.10
2023-04-30T03:34:48.311Z,11.40
2023-04-30T03:37:16.831Z,13.23
2023-04-30T03:39:45.706Z,12.52
2023-04-30T03:42:14.090Z,12.88
2023-04-30T03:44:42.404Z,13.23
2023-04-30T03:47:12.597Z,12.57
2023-04-30T03:49:41.092Z,11.82
2023-04-30T03:52:09.662Z,13.10
2023-04-30T03:54:38.147Z,12.52
2023-04-30T03:57:07.864Z,12.48
2023-04-30T03:59:36.770Z,11.93
2023-04-30T04:02:05.177Z,12.65
2023-04-30T04:04:36.470Z,12.88
2023-04-30T04:07:04.901Z,11.82
2023-04-30T04:09:33.348Z,12.40
2023-04-30T04:12:02.828Z,10.95
2023-04-30T04:14:33.461Z,12.38
2023-04-30T04:17:05.580Z,12.30
2023-04-30T04:19:35.697Z,13.27
2023-04-30T04:22:04.570Z,13.40
2023-04-30T04:24:33.285Z,13.73
2023-04-30T04:27:04.052Z,13.13
2023-04-30T04:29:32.838Z,12.63
2023-04-30T04:32:02.895Z,12.13
2023-04-30T04:34:31.260Z,11.98
2023-04-30T04:37:01.635Z,12.98
2023-04-30T04:39:30.064Z,11.95
2023-04-30T04:41:58.479Z,11.23
2023-04-30T04:44:27.280Z,11.77
2023-04-30T04:46:56.934Z,12.60
2023-04-30T04:49:25.695Z,13.55
2023-04-30T04:51:54.029Z,13.43
2023-04-30T04:54:24.496Z,13.70
2023-04-30T04:56:53.021Z,13.57
2023-04-30T04:59:21.322Z,13.15
2023-04-30T05:01:52.958Z,13.75
2023-04-30T05:04:21.449Z,11.60
2023-04-30T05:06:50.013Z,11.95
2023-04-30T05:09:18.421Z,12.65
2023-04-30T05:11:51.383Z,13.13
2023-04-30T05:14:20.962Z,12.60
2023-04-30T05:16:49.835Z,12.20
2023-04-30T05:19:18.383Z,12.23
2023-04-30T05:21:47.045Z,14.32
2023-04-30T05:24:15.419Z,12.80
2023-04-30T05:26:44.352Z,13.57
2023-04-30T05:29:14.255Z,14.07
2023-04-30T05:31:43.014Z,13.13
2023-04-30T05:34:11.418Z,13.05
2023-04-30T05:36:40.844Z,12.65
2023-04-30T05:39:10.447Z,13.57
2023-04-30T05:41:39.144Z,12.85
2023-04-30T05:44:07.778Z,12.57
2023-04-30T05:47:02.209Z,12.30
2023-04-30T05:49:31.954Z,11.27
2023-04-30T05:52:02.328Z,10.98
2023-04-30T05:54:30.669Z,12.15
2023-04-30T05:56:59.157Z,11.95
2023-04-30T05:59:27.768Z,11.63
2023-04-30T06:01:57.580Z,12.38
2023-04-30T06:04:26.022Z,11.52
2023-04-30T06:06:54.465Z,11.00
2023-04-30T06:09:22.944Z,10.60
2023-04-30T06:11:52.409Z,11.68
2023-04-30T06:14:22.730Z,11.68
2023-04-30T06:16:51.453Z,13.55
2023-04-30T06:19:21.456Z,12.50
2023-04-30T06:21:52.704Z,11.63
2023-04-30T06:24:21.004Z,11.23
2023-04-30T06:26:52.381Z,12.68
2023-04-30T06:29:21.179Z,12.43
2023-04-30T06:31:52.897Z,11.93
2023-04-30T06:34:23.088Z,11.55
2023-04-30T06:36:51.637Z,11.63
2023-04-30T06:39:20.006Z,10.73
2023-04-30T06:41:49.254Z,11.55
2023-04-30T06:44:19.012Z,11.98
2023-04-30T06:46:50.725Z,10.68
2023-04-30T06:49:19.085Z,12.50
2023-04-30T06:51:50.019Z,10.18
2023-04-30T06:54:18.405Z,8.05
2023-04-30T06:56:47.035Z,7.85
2023-04-30T06:59:15.372Z,8.02
2023-04-30T07:01:43.872Z,7.88
2023-04-30T07:04:12.579Z,7.75
2023-04-30T07:06:41.139Z,7.47
2023-04-30T07:09:11.618Z,7.10
2023-04-30T07:11:40.357Z,6.45
2023-04-30T07:14:08.789Z,7.57
2023-04-30T07:16:37.380Z,7.45
2023-04-30T07:19:06.055Z,8.65
2023-04-30T07:21:34.380Z,7.45
2023-04-30T07:24:02.961Z,8.52
2023-04-30T07:26:32.826Z,8.20
2023-04-30T07:29:01.282Z,7.70
2023-04-30T07:31:29.758Z,8.40
2023-04-30T07:33:58.493Z,8.30
2023-04-30T07:36:27.569Z,8.07
2023-04-30T07:38:56.037Z,7.70
2023-04-30T07:41:27.081Z,8.18
2023-04-30T07:43:56.792Z,8.60
2023-04-30T07:46:26.389Z,8.13
2023-04-30T07:48:54.824Z,8.80
2023-04-30T07:51:23.325Z,8.15
2023-04-30T07:53:53.286Z,8.73
2023-04-30T07:56:21.765Z,8.95
2023-04-30T07:58:50.103Z,7.63
2023-04-30T08:01:20.075Z,8.90
2023-04-30T08:03:51.676Z,8.00
2023-04-30T08:06:20.688Z,7.97
2023-04-30T08:08:50.435Z,8.10
2023-04-30T08:11:19.470Z,7.57
2023-04-30T08:13:48.801Z,7.95
2023-04-30T08:16:17.266Z,8.45
2023-04-30T08:18:49.241Z,7.90
2023-04-30T08:21:18.788Z,8.30
2023-04-30T08:23:50.173Z,8.75
2023-04-30T08:26:18.628Z,8.50
2023-04-30T08:28:46.956Z,7.88
2023-04-30T08:31:15.768Z,7.55
2023-04-30T08:33:44.052Z,7.07
2023-04-30T08:36:13.915Z,8.50
2023-04-30T08:38:42.350Z,8.35
2023-04-30T08:41:14.655Z,8.38
2023-04-30T08:43:44.326Z,7.05
2023-04-30T08:46:22.364Z,7.18
2023-04-30T08:48:51.234Z,7.90
2023-04-30T08:51:22.245Z,8.00
2023-04-30T08:53:51.896Z,7.75
2023-04-30T08:56:20.439Z,8.35
2023-04-30T08:58:52.351Z,7.90
2023-04-30T09:01:22.192Z,7.50
2023-04-30T09:03:50.809Z,7.22
2023-04-30T09:06:20.937Z,6.65
2023-04-30T09:08:50.719Z,7.20
2023-04-30T09:11:23.971Z,7.43
2023-04-30T09:13:53.882Z,7.60
2023-04-30T09:16:23.183Z,8.10
2023-04-30T09:18:52.824Z,8.75
2023-04-30T09:21:36.257Z,7.47
2023-04-30T09:24:06.894Z,7.43
2023-04-30T09:26:37.725Z,8.57
2023-04-30T09:29:08.944Z,8.07
2023-04-30T09:31:39.121Z,8.60
2023-04-30T09:34:07.919Z,7.80
2023-04-30T09:36:38.622Z,7.75
2023-04-30T09:39:15.645Z,7.68
2023-04-30T09:41:44.962Z,8.30
2023-04-30T09:44:29.375Z,8.10
2023-04-30T09:46:59.453Z,7.13
2023-04-30T09:49:28.500Z,7.75
2023-04-30T09:51:59.679Z,7.05
2023-04-30T09:54:30.135Z,7.82
2023-04-30T09:57:03.310Z,7.28
2023-04-30T09:59:35.383Z,6.88
2023-04-30T10:02:06.860Z,7.00
2023-04-30T10:04:37.430Z,8.63
2023-04-30T10:07:15.986Z,7.50
2023-04-30T10:09:52.375Z,7.65
2023-04-30T10:12:27.991Z,7.13
2023-04-30T10:15:03.689Z,7.00
2023-04-30T10:17:35.091Z,7.13
2023-04-30T10:20:08.495Z,6.38
2023-04-30T10:22:38.753Z,5.40
2023-04-30T10:25:11.445Z,6.90
2023-04-30T10:27:40.785Z,5.95
2023-04-30T10:30:12.539Z,6.80
2023-04-30T10:32:54.637Z,6.45
2023-04-30T10:35:29.073Z,6.95
2023-04-30T10:38:08.447Z,5.75
2023-04-30T10:40:38.560Z,6.32
2023-04-30T10:43:07.079Z,6.65
2023-04-30T10:45:40.398Z,8.63
2023-04-30T10:48:09.380Z,7.90
2023-04-30T10:50:45.569Z,7.40
2023-04-30T10:53:20.197Z,8.73
2023-04-30T10:55:50.618Z,8.00
2023-04-30T10:58:27.740Z,8.52
2023-04-30T11:01:05.273Z,7.80
2023-04-30T11:03:36.404Z,8.55
2023-04-30T11:06:12.867Z,8.82
2023-04-30T11:08:46.702Z,8.32
2023-04-30T11:11:21.960Z,8.43
2023-04-30T11:14:03.046Z,8.35
2023-04-30T11:16:32.038Z,9.02
2023-04-30T11:19:11.282Z,8.10
2023-04-30T11:21:42.672Z,7.80
2023-04-30T11:24:14.722Z,7.68
2023-04-30T11:27:14.565Z,8.15
2023-04-30T11:29:46.601Z,7.70
2023-04-30T11:32:15.659Z,6.70
2023-04-30T11:34:45.575Z,7.00
2023-04-30T11:37:20.547Z,7.60
2023-04-30T11:39:51.575Z,7.90
2023-04-30T11:42:20.731Z,8.00
2023-04-30T11:44:49.312Z,8.85
2023-04-30T11:47:18.380Z,8.27
2023-04-30T11:50:04.534Z,7.43
2023-04-30T11:52:32.956Z,7.22
2023-04-30T11:55:03.555Z,7.50
2023-04-30T11:57:42.354Z,7.38
2023-04-30T12:00:15.715Z,7.30
2023-04-30T12:02:49.126Z,7.72
2023-04-30T12:05:20.299Z,8.30
2023-04-30T12:07:50.828Z,7.47
2023-04-30T12:10:22.673Z,7.00
2023-04-30T12:12:53.220Z,7.20
2023-04-30T12:15:26.914Z,6.90
2023-04-30T12:17:57.421Z,6.18
2023-04-30T12:20:28.470Z,6.47
2023-04-30T12:22:57.168Z,6.63
2023-04-30T12:25:29.877Z,5.70
2023-04-30T12:28:00.954Z,6.57
2023-04-30T12:30:30.350Z,6.82
2023-04-30T12:33:03.431Z,6.07
2023-04-30T12:35:33.432Z,5.72
2023-04-30T12:38:09.636Z,6.07
2023-04-30T12:40:40.892Z,5.28
2023-04-30T12:43:10.363Z,5.28
2023-04-30T12:45:51.885Z,6.45
2023-04-30T12:48:24.491Z,5.72
2023-04-30T12:50:55.191Z,6.50
2023-04-30T12:53:24.848Z,5.50
2023-04-30T12:56:13.992Z,5.10
2023-04-30T12:58:45.627Z,5.20
2023-04-30T13:01:15.193Z,5.38
2023-04-30T13:03:44.355Z,4.32
2023-04-30T13:06:12.847Z,4.15
2023-04-30T13:08:56.298Z,3.17
2023-04-30T13:11:28.611Z,3.92
2023-04-30T13:13:56.992Z,4.40
2023-04-30T13:16:26.067Z,3.95
2023-04-30T13:18:55.375Z,3.85
2023-04-30T13:21:24.968Z,3.97
2023-04-30T13:23:54.833Z,3.50
2023-04-30T13:26:24.844Z,3.72
2023-04-30T13:28:55.128Z,3.90
2023-04-30T13:31:26.403Z,3.60
2023-04-30T13:33:55.493Z,3.63
2023-04-30T13:36:24.080Z,3.30
2023-04-30T13:38:55.041Z,2.38
2023-04-30T13:41:23.667Z,2.63
2023-04-30T13:43:53.721Z,3.53
2023-04-30T13:46:22.327Z,4.75
2023-04-30T13:48:53.133Z,3.55
2023-04-30T13:51:21.835Z,2.97
2023-04-30T13:53:50.196Z,3.90
2023-04-30T13:56:18.557Z,3.60
2023-04-30T13:58:47.726Z,3.75
2023-04-30T14:01:17.688Z,3.10
2023-04-30T14:03:47.488Z,3.20
2023-04-30T14:06:18.921Z,2.95
2023-04-30T14:08:47.946Z,2.75
2023-04-30T14:11:16.589Z,3.58
2023-04-30T14:13:45.343Z,3.92
2023-04-30T14:16:13.865Z,3.88
2023-04-30T14:18:43.940Z,3.20
2023-04-30T14:21:13.865Z,3.58
2023-04-30T14:23:42.713Z,3.10
2023-04-30T14:26:11.274Z,2.80
2023-04-30T14:28:39.758Z,2.88
2023-04-30T14:31:19.432Z,2.53
2023-04-30T14:33:52.161Z,2.65
2023-04-30T14:36:20.629Z,2.20
2023-04-30T14:38:52.038Z,2.42
2023-04-30T14:41:21.256Z,2.25
2023-04-30T14:43:49.765Z,2.47
2023-04-30T14:46:18.296Z,2.17
2023-04-30T14:48:48.612Z,2.60
2023-04-30T14:51:17.087Z,2.60
2023-04-30T14:53:45.562Z,2.25
2023-04-30T14:56:13.934Z,2.85
2023-04-30T14:58:42.226Z,2.50
2023-04-30T15:01:10.637Z,2.35
2023-04-30T15:03:39.315Z,2.50
2023-04-30T15:06:09.666Z,2.25
2023-04-30T15:08:38.285Z,2.22
2023-04-30T15:11:09.611Z,2.80
2023-04-30T15:13:38.321Z,2.17
2023-04-30T15:16:07.843Z,2.60
2023-04-30T15:18:39.259Z,1.80
2023-04-30T15:21:09.283Z,2.58
2023-04-30T15:23:37.838Z,2.17
2023-04-30T15:26:06.372Z,1.90
2023-04-30T15:28:35.097Z,1.77
2023-04-30T15:31:06.404Z,1.73
2023-04-30T15:33:39.718Z,1.40
2023-04-30T15:36:11.404Z,1.92
2023-04-30T15:38:39.963Z,0.90
2023-04-30T15:41:08.333Z,0.80
2023-04-30T15:43:37.205Z,0.80
2023-04-30T15:46:05.705Z,1.92
2023-04-30T15:48:34.404Z,2.20
2023-04-30T15:51:02.844Z,1.23
2023-04-30T15:53:33.212Z,0.93
2023-04-30T15:56:04.345Z,1.05
2023-04-30T15:58:32.927Z,1.23
2023-04-30T16:01:02.015Z,1.10
2023-04-30T16:03:31.073Z,1.50
2023-04-30T16:06:00.989Z,1.27
2023-04-30T16:08:31.418Z,1.60
2023-04-30T16:11:01.247Z,1.60
2023-04-30T16:13:29.621Z,1.70
2023-04-30T16:15:58.006Z,1.75
2023-04-30T16:18:26.486Z,2.05
2023-04-30T16:20:55.239Z,1.35
2023-04-30T16:23:23.595Z,1.30
2023-04-30T16:25:53.293Z,1.60
2023-04-30T16:28:23.764Z,1.40
2023-04-30T16:30:52.374Z,1.60
2023-04-30T16:33:21.738Z,1.27
2023-04-30T16:35:50.117Z,1.30
2023-04-30T16:38:18.589Z,1.52
2023-04-30T16:40:47.017Z,1.58
2023-04-30T16:43:18.294Z,1.60
2023-04-30T16:45:49.149Z,2.03
2023-04-30T16:48:17.696Z,1.38
2023-04-30T16:50:48.913Z,1.30
2023-04-30T16:53:17.311Z,0.88
2023-04-30T16:55:45.745Z,1.80
2023-04-30T16:58:14.219Z,1.80
2023-04-30T17:00:44.873Z,1.35
2023-04-30T17:03:13.528Z,1.73
2023-04-30T17:05:42.279Z,2.03
2023-04-30T17:08:14.356Z,1.30
2023-04-30T17:10:43.496Z,1.27
2023-04-30T17:13:13.801Z,1.40
2023-04-30T17:15:44.644Z,1.40
2023-04-30T17:18:13.198Z,1.35
2023-04-30T17:20:41.925Z,2.05
2023-04-30T17:23:10.351Z,2.05
2023-04-30T17:25:38.876Z,1.90
2023-04-30T17:28:07.368Z,1.50
2023-04-30T17:30:36.120Z,1.48
2023-04-30T17:33:06.211Z,1.77
2023-04-30T17:35:34.801Z,1.75
2023-04-30T17:38:03.266Z,5.20
2023-04-30T17:40:33.227Z,3.40
2023-04-30T17:43:02.169Z,2.55
2023-04-30T17:45:30.508Z,2.08
2023-04-30T17:47:59.500Z,1.33
2023-04-30T17:50:29.412Z,1.40
2023-04-30T17:52:58.013Z,1.50
2023-04-30T17:55:27.080Z,1.20
2023-04-30T17:57:55.915Z,1.20
2023-04-30T18:00:24.540Z,1.30
2023-04-30T18:02:53.466Z,1.30
2023-04-30T18:05:22.018Z,1.40
2023-04-30T18:07:52.351Z,1.55
2023-04-30T18:10:20.684Z,1.50
2023-04-30T18:12:50.545Z,1.63
2023-04-30T18:15:19.082Z,1.67
2023-04-30T18:17:48.162Z,1.77
2023-04-30T18:20:16.957Z,1.65
2023-04-30T18:22:48.058Z,1.88
2023-04-30T18:25:19.258Z,1.75
2023-04-30T18:27:47.962Z,1.70
2023-04-30T18:30:16.687Z,1.90
2023-04-30T18:32:45.412Z,2.28
2023-04-30T18:35:13.913Z,2.00
2023-04-30T18:37:42.333Z,1.80
2023-04-30T18:40:11.934Z,2.03
2023-04-30T18:42:42.068Z,2.03
2023-04-30T18:45:11.879Z,2.20
2023-04-30T18:47:40.529Z,2.17
2023-04-30T18:50:13.753Z,2.25
2023-04-30T18:52:42.260Z,2.30
2023-04-30T18:55:13.558Z,2.20
2023-04-30T18:57:44.000Z,2.47
2023-04-30T19:00:14.696Z,2.58
2023-04-30T19:02:44.265Z,2.95
2023-04-30T19:05:14.240Z,2.58
2023-04-30T19:07:43.437Z,2.40
2023-04-30T19:10:12.101Z,2.75
2023-04-30T19:12:40.659Z,2.63
2023-04-30T19:15:14.813Z,2.75
2023-04-30T19:17:43.463Z,2.60
2023-04-30T19:20:15.292Z,2.58
2023-04-30T19:22:44.079Z,2.97
2023-04-30T19:25:12.964Z,2.72
2023-04-30T19:27:41.780Z,2.70
2023-04-30T19:30:14.330Z,2.40
2023-04-30T19:33:26.036Z,3.10
2023-04-30T19:35:55.289Z,3.00
2023-04-30T19:38:29.796Z,3.10
2023-04-30T19:40:58.349Z,3.00
2023-04-30T19:43:27.353Z,3.25
2023-04-30T19:46:00.138Z,3.13
2023-04-30T19:48:28.699Z,3.05
2023-04-30T19:50:58.532Z,3.08
2023-04-30T19:53:27.365Z,3.50
2023-04-30T19:56:08.694Z,3.17
2023-04-30T19:58:49.430Z,3.55
2023-04-30T20:01:19.879Z,3.40
2023-04-30T20:03:48.592Z,4.00
2023-04-30T20:06:17.323Z,4.07
2023-04-30T20:08:45.983Z,3.65
2023-04-30T20:11:14.339Z,3.88
2023-04-30T20:13:43.694Z,3.83
2023-04-30T20:16:12.739Z,5.00
2023-04-30T20:18:42.623Z,4.00
2023-04-30T20:21:11.141Z,3.75
2023-04-30T20:23:40.907Z,3.75
2023-04-30T20:26:10.601Z,3.35
2023-04-30T20:28:39.394Z,3.30
2023-04-30T20:31:09.789Z,3.22
2023-04-30T20:33:39.347Z,3.85
2023-04-30T20:36:09.156Z,3.13
2023-04-30T20:38:37.730Z,3.40
2023-04-30T20:41:06.275Z,3.35
2023-04-30T20:43:34.854Z,3.30
2023-04-30T20:46:03.570Z,3.30
2023-04-30T20:48:31.872Z,3.40
2023-04-30T20:51:00.258Z,3.30
2023-04-30T20:53:30.814Z,3.53
2023-04-30T20:56:01.387Z,3.20
2023-04-30T20:58:30.540Z,3.70
2023-04-30T21:00:59.066Z,3.80
2023-04-30T21:03:28.225Z,3.78
2023-04-30T21:05:56.725Z,3.22
2023-04-30T21:08:25.224Z,3.35
2023-04-30T21:10:55.027Z,3.53
2023-04-30T21:13:23.730Z,3.30
2023-04-30T21:15:54.341Z,3.15
2023-04-30T21:18:22.850Z,3.50
2023-04-30T21:20:51.409Z,3.58
2023-04-30T21:23:20.152Z,3.22
2023-04-30T21:25:56.398Z,3.33
2023-04-30T21:28:24.764Z,3.22
2023-04-30T21:30:53.196Z,3.25
2023-04-30T21:33:21.857Z,3.33
2023-04-30T21:35:50.202Z,3.50
2023-04-30T21:38:18.590Z,3.50
2023-04-30T21:40:46.894Z,3.40
2023-04-30T21:43:17.835Z,3.15
2023-04-30T21:45:46.634Z,3.55
2023-04-30T21:48:15.025Z,3.47
2023-04-30T21:50:43.503Z,3.97
2023-04-30T21:53:12.272Z,4.07
2023-04-30T21:55:40.753Z,4.28
2023-04-30T21:58:09.225Z,4.10
2023-04-30T22:00:39.611Z,4.13
2023-04-30T22:03:10.031Z,3.92
2023-04-30T22:05:39.829Z,4.47
2023-04-30T22:08:08.513Z,4.45
2023-04-30T22:10:36.960Z,4.60
2023-04-30T22:13:05.365Z,4.20
2023-04-30T22:15:47.290Z,4.32
2023-04-30T22:18:17.997Z,4.13
2023-04-30T22:20:46.632Z,3.92
2023-04-30T22:23:15.778Z,4.07
2023-04-30T22:25:44.592Z,5.18
2023-04-30T22:28:13.020Z,4.40
2023-04-30T22:30:41.352Z,4.68
2023-04-30T22:33:09.780Z,4.30
2023-04-30T22:35:40.061Z,4.70
2023-04-30T22:38:08.830Z,4.85
2023-04-30T22:40:40.481Z,4.38
2023-04-30T22:43:10.087Z,4.18
2023-04-30T22:45:40.598Z,4.72
2023-04-30T22:48:09.821Z,4.63
2023-04-30T22:50:39.728Z,4.03
2023-04-30T22:53:08.250Z,3.97
2023-04-30T22:55:36.570Z,4.40
2023-04-30T22:58:04.813Z,4.60
2023-04-30T23:00:33.124Z,4.65
2023-04-30T23:03:01.527Z,4.53
2023-04-30T23:05:29.914Z,4.25
2023-04-30T23:07:59.573Z,4.60
2023-04-30T23:10:27.844Z,4.90
2023-04-30T23:12:56.631Z,4.97
2023-04-30T23:15:25.018Z,4.90
2023-04-30T23:17:54.557Z,4.68
2023-04-30T23:20:23.607Z,5.45
2023-04-30T23:22:51.935Z,4.88
2023-04-30T23:25:21.610Z,4.95
2023-04-30T23:27:49.910Z,5.40
2023-04-30T23:30:18.319Z,5.60
2023-04-30T23:32:46.860Z,4.50
2023-04-30T23:35:15.175Z,5.15
2023-04-30T23:37:43.483Z,4.60
2023-04-30T23:40:12.454Z,5.10
2023-04-30T23:42:42.079Z,5.40
2023-04-30T23:45:11.451Z,5.15
2023-04-30T23:47:39.777Z,5.68
2023-04-30T23:50:10.283Z,5.35
2023-04-30T23:52:38.853Z,5.00
2023-04-30T23:55:09.275Z,5.32
2023-04-30T23:57:37.570Z,5.30
